Time;durP1;ratioP1;P1;durP2;ratioP2;P2;SDS_P1;SDS_P2;PMS_P1;PMS_P2;Temp;Humidity;BMP_temperature;BMP_pressure;BME280_temperature;BME280_humidity;BME280_pressure;Samples;Min_cycle;Max_cycle;Signal;HPM_P1;HPM_P2
2021/10/14 00:02:35;;;;;;;17.10;7.50;;;;;;;;;;6273445;22;20167;-89
2021/10/14 00:05:41;;;;;;;24.57;6.60;;;;;;;;;;6272871;22;20193;-90
2021/10/14 00:08:47;;;;;;;28.30;7.47;;;;;;;;;;6275177;22;20193;-89
2021/10/14 00:11:53;;;;;;;35.47;7.00;;;;;;;;;;6274175;22;20180;-89
2021/10/14 00:14:59;;;;;;;13.63;7.10;;;;;;;;;;6273130;22;20234;-89
2021/10/14 00:18:06;;;;;;;25.87;6.83;;;;;;;;;;6276881;22;20606;-90
2021/10/14 00:21:11;;;;;;;17.13;6.13;;;;;;;;;;6287563;22;20205;-88
2021/10/14 00:24:23;;;;;;;13.87;6.37;;;;;;;;;;6292381;22;20492;-89
2021/10/14 00:27:31;;;;;;;20.60;6.53;;;;;;;;;;6293349;22;20166;-90
2021/10/14 00:30:36;;;;;;;32.47;8.13;;;;;;;;;;6291225;22;20608;-90
2021/10/14 00:33:42;;;;;;;22.40;6.83;;;;;;;;;;6292036;22;20165;-91
2021/10/14 00:36:47;;;;;;;18.00;6.27;;;;;;;;;;6290898;22;20228;-90
2021/10/14 00:39:54;;;;;;;25.37;6.80;;;;;;;;;;6292652;22;20173;-90
2021/10/14 00:42:59;;;;;;;13.33;6.23;;;;;;;;;;6291465;22;20222;-90
2021/10/14 00:46:04;;;;;;;16.87;7.53;;;;;;;;;;6290624;22;20481;-90
2021/10/14 00:49:09;;;;;;;22.93;10.73;;;;;;;;;;6291760;22;20292;-90
2021/10/14 00:52:15;;;;;;;17.93;7.53;;;;;;;;;;6291257;22;20169;-89
2021/10/14 00:55:22;;;;;;;20.10;6.30;;;;;;;;;;6291144;22;20234;-89
2021/10/14 00:58:28;;;;;;;18.70;6.77;;;;;;;;;;6292704;22;20189;-91
2021/10/14 01:01:33;;;;;;;15.83;7.30;;;;;;;;;;6290769;22;20205;-91
2021/10/14 01:04:38;;;;;;;26.57;7.10;;;;;;;;;;6291220;22;20190;-89
2021/10/14 01:07:44;;;;;;;32.43;9.17;;;;;;;;;;6290764;22;20254;-89
2021/10/14 01:10:54;;;;;;;19.77;8.57;;;;;;;;;;6289596;22;20176;-88
2021/10/14 01:13:59;;;;;;;23.53;7.17;;;;;;;;;;6290864;22;20154;-89
2021/10/14 01:17:04;;;;;;;14.10;7.33;;;;;;;;;;6289870;22;20240;-90
2021/10/14 01:20:12;;;;;;;17.03;7.80;;;;;;;;;;6288630;22;20189;-89
2021/10/14 01:23:18;;;;;;;22.63;6.40;;;;;;;;;;6272295;22;20216;-89
2021/10/14 01:26:23;;;;;;;13.27;7.00;;;;;;;;;;6269806;22;20161;-90
2021/10/14 01:29:29;;;;;;;15.57;7.37;;;;;;;;;;6269623;22;20517;-90
2021/10/14 01:32:34;;;;;;;17.33;8.70;;;;;;;;;;6272214;22;20218;-91
2021/10/14 01:35:41;;;;;;;19.77;8.13;;;;;;;;;;6269722;22;20222;-91
2021/10/14 01:38:46;;;;;;;15.57;7.37;;;;;;;;;;6271513;22;20212;-90
2021/10/14 01:41:51;;;;;;;16.07;7.27;;;;;;;;;;6270695;22;20269;-90
2021/10/14 01:44:57;;;;;;;15.13;6.93;;;;;;;;;;6270041;22;20206;-91
2021/10/14 01:48:04;;;;;;;21.60;6.70;;;;;;;;;;6271512;22;20189;-91
2021/10/14 01:51:12;;;;;;;13.83;6.67;;;;;;;;;;6270925;22;20204;-90
2021/10/14 01:54:18;;;;;;;12.97;6.27;;;;;;;;;;6272582;22;20201;-90
2021/10/14 01:57:24;;;;;;;14.43;6.97;;;;;;;;;;6272321;22;20476;-90
2021/10/14 02:00:29;;;;;;;26.47;7.13;;;;;;;;;;6271571;22;20166;-92
2021/10/14 02:03:35;;;;;;;13.43;6.60;;;;;;;;;;6273481;22;20153;-91
2021/10/14 02:06:42;;;;;;;18.43;6.90;;;;;;;;;;6274421;22;20169;-90
2021/10/14 02:09:48;;;;;;;39.43;7.00;;;;;;;;;;6273696;22;20194;-89
2021/10/14 02:12:53;;;;;;;58.00;8.57;;;;;;;;;;6272080;22;20503;-89
2021/10/14 02:15:58;;;;;;;23.70;6.80;;;;;;;;;;6272921;22;20169;-89
2021/10/14 02:19:03;;;;;;;15.33;6.97;;;;;;;;;;6272755;22;20185;-90
2021/10/14 02:22:09;;;;;;;24.00;7.30;;;;;;;;;;6273013;22;20494;-91
2021/10/14 02:25:16;;;;;;;13.47;7.20;;;;;;;;;;6274327;22;20224;-90
2021/10/14 02:28:21;;;;;;;16.63;7.00;;;;;;;;;;6273575;22;20193;-90
2021/10/14 02:31:26;;;;;;;16.87;6.70;;;;;;;;;;6273737;22;20212;-90
2021/10/14 02:34:31;;;;;;;15.43;7.17;;;;;;;;;;6272717;22;20166;-90
2021/10/14 02:37:38;;;;;;;18.57;7.00;;;;;;;;;;6272776;22;20170;-91
2021/10/14 02:40:43;;;;;;;13.47;7.10;;;;;;;;;;6272225;22;20161;-90
2021/10/14 02:43:49;;;;;;;20.50;6.70;;;;;;;;;;6272625;22;20210;-90
2021/10/14 02:46:54;;;;;;;16.17;7.63;;;;;;;;;;6273642;22;20270;-91
2021/10/14 02:49:59;;;;;;;14.43;7.50;;;;;;;;;;6272816;22;20272;-91
2021/10/14 02:53:06;;;;;;;20.33;7.40;;;;;;;;;;6275972;22;20158;-90
2021/10/14 02:56:11;;;;;;;18.07;7.40;;;;;;;;;;6275944;22;20169;-92
2021/10/14 02:59:18;;;;;;;21.53;7.10;;;;;;;;;;6275121;22;20243;-90
2021/10/14 03:02:23;;;;;;;26.77;6.87;;;;;;;;;;6277072;22;20165;-90
2021/10/14 03:05:28;;;;;;;35.50;7.67;;;;;;;;;;6275580;22;20178;-90
2021/10/14 03:08:35;;;;;;;15.57;7.33;;;;;;;;;;6275734;22;20249;-90
2021/10/14 03:11:40;;;;;;;18.00;7.80;;;;;;;;;;6274265;22;20188;-90
2021/10/14 03:14:45;;;;;;;14.73;7.70;;;;;;;;;;6275676;22;20156;-89
2021/10/14 03:17:50;;;;;;;23.60;7.27;;;;;;;;;;6275614;22;20249;-89
2021/10/14 03:20:55;;;;;;;24.90;7.23;;;;;;;;;;6283415;22;20185;-89
2021/10/14 03:24:02;;;;;;;18.60;7.93;;;;;;;;;;6291470;22;20193;-89
2021/10/14 03:27:07;;;;;;;17.57;7.27;;;;;;;;;;6292562;22;20213;-89
2021/10/14 03:30:12;;;;;;;18.57;7.70;;;;;;;;;;6291021;22;20237;-90
2021/10/14 03:33:18;;;;;;;15.17;8.00;;;;;;;;;;6293653;22;20153;-90
2021/10/14 03:36:23;;;;;;;16.43;7.80;;;;;;;;;;6292513;22;20173;-89
2021/10/14 03:39:32;;;;;;;15.13;7.30;;;;;;;;;;6293011;22;20161;-90
2021/10/14 03:42:37;;;;;;;17.83;8.50;;;;;;;;;;6292650;22;20174;-89
2021/10/14 03:45:43;;;;;;;21.20;8.73;;;;;;;;;;6291801;22;20285;-91
2021/10/14 03:48:48;;;;;;;25.40;9.83;;;;;;;;;;6291130;22;20177;-90
2021/10/14 03:51:53;;;;;;;17.20;8.33;;;;;;;;;;6292816;22;20193;-90
2021/10/14 03:54:59;;;;;;;16.07;8.40;;;;;;;;;;6290917;22;20170;-89
2021/10/14 03:58:05;;;;;;;15.50;7.50;;;;;;;;;;6292334;22;20165;-91
2021/10/14 04:01:17;;;;;;;21.23;8.87;;;;;;;;;;6293181;22;20618;-90
2021/10/14 04:04:23;;;;;;;18.60;7.93;;;;;;;;;;6291223;22;20188;-90
2021/10/14 04:07:28;;;;;;;14.67;7.67;;;;;;;;;;6292506;22;20169;-90
2021/10/14 04:10:36;;;;;;;17.63;7.90;;;;;;;;;;6292758;22;20232;-89
2021/10/14 04:13:42;;;;;;;17.80;8.10;;;;;;;;;;6295152;22;20637;-91
2021/10/14 04:16:47;;;;;;;26.43;8.83;;;;;;;;;;6292914;22;20200;-91
2021/10/14 04:19:52;;;;;;;16.63;8.00;;;;;;;;;;6292884;22;20344;-89
2021/10/14 04:22:58;;;;;;;16.93;8.37;;;;;;;;;;6277375;22;20261;-89
2021/10/14 04:26:05;;;;;;;19.23;8.17;;;;;;;;;;6277304;22;20216;-89
2021/10/14 04:29:10;;;;;;;13.90;7.03;;;;;;;;;;6276327;22;20181;-91
2021/10/14 04:32:16;;;;;;;16.40;7.63;;;;;;;;;;6277890;22;20156;-89
2021/10/14 04:35:22;;;;;;;17.00;8.03;;;;;;;;;;6276748;22;20161;-90
2021/10/14 04:38:27;;;;;;;16.13;7.80;;;;;;;;;;6275940;22;20202;-92
2021/10/14 04:41:33;;;;;;;17.73;8.20;;;;;;;;;;6276264;22;20181;-89
2021/10/14 04:44:39;;;;;;;17.93;8.13;;;;;;;;;;6279309;22;20218;-90
2021/10/14 04:47:45;;;;;;;22.67;9.03;;;;;;;;;;6279752;22;20173;-89
2021/10/14 04:50:53;;;;;;;14.77;7.50;;;;;;;;;;6279199;22;20246;-89
2021/10/14 04:54:00;;;;;;;12.70;6.80;;;;;;;;;;6277924;22;20605;-89
2021/10/14 04:57:10;;;;;;;14.33;7.43;;;;;;;;;;6278543;22;20220;-89
2021/10/14 05:00:15;;;;;;;11.90;6.70;;;;;;;;;;6277806;22;20153;-89
2021/10/14 05:03:21;;;;;;;15.53;8.00;;;;;;;;;;6276579;22;20197;-90
2021/10/14 05:06:26;;;;;;;13.70;7.60;;;;;;;;;;6280996;22;20174;-90
2021/10/14 05:09:33;;;;;;;16.13;7.90;;;;;;;;;;6279056;22;20178;-89
2021/10/14 05:12:51;;;;;;;14.00;7.87;;;;;;;;;;6275938;22;20174;-90
2021/10/14 05:16:01;;;;;;;15.47;7.40;;;;;;;;;;6276815;22;20165;-89
2021/10/14 05:19:07;;;;;;;13.33;7.57;;;;;;;;;;6277056;22;20193;-89
2021/10/14 05:22:12;;;;;;;13.50;7.43;;;;;;;;;;6274279;22;20165;-90
2021/10/14 05:25:20;;;;;;;15.90;8.70;;;;;;;;;;6275791;22;20157;-90
2021/10/14 05:28:31;;;;;;;12.60;7.43;;;;;;;;;;6274366;22;20161;-91
2021/10/14 05:31:36;;;;;;;17.93;7.87;;;;;;;;;;6274752;22;20165;-88
2021/10/14 05:34:42;;;;;;;15.27;8.13;;;;;;;;;;6274106;22;20229;-89
2021/10/14 05:37:47;;;;;;;16.87;8.67;;;;;;;;;;6273899;22;20202;-88
2021/10/14 05:40:52;;;;;;;19.10;10.47;;;;;;;;;;6275227;22;20234;-90
2021/10/14 05:43:59;;;;;;;16.70;9.53;;;;;;;;;;6273956;22;20206;-89
2021/10/14 05:47:05;;;;;;;18.80;10.10;;;;;;;;;;6272835;22;20264;-88
2021/10/14 05:50:10;;;;;;;18.60;10.37;;;;;;;;;;6274718;22;20173;-89
2021/10/14 05:53:16;;;;;;;18.33;9.37;;;;;;;;;;6273787;22;20238;-91
2021/10/14 05:56:24;;;;;;;14.90;8.53;;;;;;;;;;6270793;22;20601;-90
2021/10/14 05:59:31;;;;;;;17.60;8.53;;;;;;;;;;6271750;22;20244;-89
2021/10/14 06:02:36;;;;;;;18.97;9.33;;;;;;;;;;6273748;22;20303;-91
2021/10/14 06:05:41;;;;;;;15.63;9.10;;;;;;;;;;6275872;22;20193;-90
2021/10/14 22:06:24;;;;;;;39.13;18.02;;;;;;;;;;6271018;22;20210;-89
2021/10/14 22:09:29;;;;;;;34.30;17.05;;;;;;;;;;6270270;22;20173;-91
2021/10/14 22:12:35;;;;;;;34.42;16.48;;;;;;;;;;6269906;22;20162;-89
2021/10/14 22:15:39;;;;;;;31.42;16.20;;;;;;;;;;6288270;22;20193;-89
2021/10/14 22:18:44;;;;;;;34.53;17.63;;;;;;;;;;6264576;22;20174;-89
2021/10/14 22:21:51;;;;;;;34.33;17.30;;;;;;;;;;6266759;22;20153;-89
2021/10/14 22:24:56;;;;;;;36.05;18.35;;;;;;;;;;6269546;22;20169;-89
2021/10/14 22:28:02;;;;;;;35.22;16.55;;;;;;;;;;6268201;22;20173;-89
2021/10/14 22:31:07;;;;;;;32.58;16.58;;;;;;;;;;6266928;22;20201;-90
2021/10/14 22:34:12;;;;;;;34.20;18.10;;;;;;;;;;6286238;22;20169;-88
2021/10/14 22:37:19;;;;;;;38.85;17.80;;;;;;;;;;6264642;22;20227;-88
2021/10/14 22:40:25;;;;;;;33.13;18.02;;;;;;;;;;6283781;22;20166;-88
2021/10/14 22:43:31;;;;;;;33.75;17.30;;;;;;;;;;6266353;22;20240;-89
2021/10/14 22:46:36;;;;;;;30.88;16.02;;;;;;;;;;6266288;22;20169;-89
2021/10/14 22:49:41;;;;;;;37.95;16.98;;;;;;;;;;6266149;22;20280;-89
2021/10/14 22:52:49;;;;;;;37.53;16.90;;;;;;;;;;6255692;22;20186;-90
2021/10/14 22:55:54;;;;;;;34.75;15.98;;;;;;;;;;6266311;22;20178;-88
2021/10/14 22:58:59;;;;;;;36.92;15.95;;;;;;;;;;6285910;22;20169;-89
2021/10/14 23:02:04;;;;;;;35.63;16.38;;;;;;;;;;6266633;22;20497;-90
2021/10/14 23:05:09;;;;;;;33.33;16.33;;;;;;;;;;6265914;22;20166;-89
2021/10/14 23:08:16;;;;;;;34.35;15.35;;;;;;;;;;6283845;22;20193;-90
2021/10/14 23:11:21;;;;;;;29.20;15.88;;;;;;;;;;6267202;22;20248;-89
2021/10/14 23:14:26;;;;;;;31.73;14.70;;;;;;;;;;6286406;22;20154;-90
2021/10/14 23:17:32;;;;;;;30.65;15.70;;;;;;;;;;6287766;22;20161;-87
2021/10/14 23:20:40;;;;;;;26.98;14.65;;;;;;;;;;6267702;22;20181;-89
2021/10/14 23:23:47;;;;;;;31.33;16.20;;;;;;;;;;6269116;22;20245;-90
2021/10/14 23:26:54;;;;;;;34.45;15.30;;;;;;;;;;6268576;22;20177;-88
2021/10/14 23:29:59;;;;;;;35.85;18.00;;;;;;;;;;6267685;22;20170;-89
2021/10/14 23:33:04;;;;;;;34.05;15.85;;;;;;;;;;6268499;22;20170;-89
2021/10/14 23:36:10;;;;;;;34.08;16.05;;;;;;;;;;6286808;22;20216;-87
2021/10/14 23:39:19;;;;;;;33.15;14.98;;;;;;;;;;6285337;22;20169;-90
2021/10/14 23:42:25;;;;;;;32.33;15.85;;;;;;;;;;6268036;22;20631;-90
2021/10/14 23:45:30;;;;;;;30.48;14.70;;;;;;;;;;6268321;22;20185;-89
2021/10/14 23:48:39;;;;;;;27.70;15.18;;;;;;;;;;6266992;22;20219;-89
2021/10/14 23:51:43;;;;;;;29.73;14.25;;;;;;;;;;6268307;22;20202;-90
2021/10/14 23:54:50;;;;;;;29.58;14.32;;;;;;;;;;6284880;22;20173;-88
2021/10/14 23:57:57;;;;;;;33.08;15.90;;;;;;;;;;6267501;22;20169;-89
